sensor_id;sensor_type;location;lat;lon;timestamp;pressure;altitude;pressure_sealevel;temperature;humidity
65157;BME280;52745;49.794;18.258;2022-10-16T00:01:06;-16260.19;;;12.10;99.65
65157;BME280;52745;49.794;18.258;2022-10-16T00:03:35;-16259.78;;;12.09;99.82
65157;BME280;52745;49.794;18.258;2022-10-16T00:06:03;-16261.00;;;12.13;99.83
65157;BME280;52745;49.794;18.258;2022-10-16T00:08:30;-16262.38;;;12.18;99.39
65157;BME280;52745;49.794;18.258;2022-10-16T00:11:09;-16263.19;;;12.21;98.87
65157;BME280;52745;49.794;18.258;2022-10-16T00:13:37;-16263.72;;;12.24;98.78
65157;BME280;52745;49.794;18.258;2022-10-16T00:16:05;-16263.31;;;12.22;98.64
65157;BME280;52745;49.794;18.258;2022-10-16T00:18:32;-16264.00;;;12.25;98.31
65157;BME280;52745;49.794;18.258;2022-10-16T00:21:07;-16265.22;;;12.29;97.97
65157;BME280;52745;49.794;18.258;2022-10-16T00:23:55;-16265.34;;;12.30;97.90
65157;BME280;52745;49.794;18.258;2022-10-16T00:26:22;-16266.19;;;12.33;97.58
65157;BME280;52745;49.794;18.258;2022-10-16T00:28:50;-16267.25;;;12.37;97.15
65157;BME280;52745;49.794;18.258;2022-10-16T00:31:19;-16267.13;;;12.36;96.03
65157;BME280;52745;49.794;18.258;2022-10-16T00:33:46;-16267.25;;;12.37;95.56
65157;BME280;52745;49.794;18.258;2022-10-16T00:36:16;-16267.69;;;12.38;95.30
65157;BME280;52745;49.794;18.258;2022-10-16T00:38:43;-16267.94;;;12.39;95.23
65157;BME280;52745;49.794;18.258;2022-10-16T00:41:12;-16268.75;;;12.42;95.17
65157;BME280;52745;49.794;18.258;2022-10-16T00:43:44;-16269.44;;;12.45;95.16
65157;BME280;52745;49.794;18.258;2022-10-16T00:46:23;-16269.03;;;12.43;95.28
65157;BME280;52745;49.794;18.258;2022-10-16T00:51:34;-16270.13;;;12.48;94.94
65157;BME280;52745;49.794;18.258;2022-10-16T00:54:03;-16271.91;;;12.54;94.49
65157;BME280;52745;49.794;18.258;2022-10-16T00:56:31;-16272.44;;;12.56;94.46
65157;BME280;52745;49.794;18.258;2022-10-16T00:58:59;-16273.53;;;12.60;93.92
65157;BME280;52745;49.794;18.258;2022-10-16T01:01:28;-16274.06;;;12.62;94.16
65157;BME280;52745;49.794;18.258;2022-10-16T01:03:54;-16273.81;;;12.61;94.28
65157;BME280;52745;49.794;18.258;2022-10-16T01:06:24;-16272.84;;;12.58;94.63
65157;BME280;52745;49.794;18.258;2022-10-16T01:09:11;-16273.66;;;12.61;94.59
65157;BME280;52745;49.794;18.258;2022-10-16T01:17:34;-16275.16;;;12.67;94.40
65157;BME280;52745;49.794;18.258;2022-10-16T01:25:19;-16273.00;;;12.58;93.99
65157;BME280;52745;49.794;18.258;2022-10-16T01:27:50;-16273.00;;;12.58;93.63
65157;BME280;52745;49.794;18.258;2022-10-16T01:30:21;-16271.91;;;12.54;93.56
65157;BME280;52745;49.794;18.258;2022-10-16T01:33:02;-16272.16;;;12.55;93.64
65157;BME280;52745;49.794;18.258;2022-10-16T01:35:38;-16271.75;;;12.54;93.83
65157;BME280;52745;49.794;18.258;2022-10-16T01:38:34;-16271.63;;;12.53;94.03
65157;BME280;52745;49.794;18.258;2022-10-16T01:41:11;-16271.63;;;12.53;93.96
65157;BME280;52745;49.794;18.258;2022-10-16T01:43:46;-16270.81;;;12.50;93.85
65157;BME280;52745;49.794;18.258;2022-10-16T01:46:17;-16272.16;;;12.55;93.80
65157;BME280;52745;49.794;18.258;2022-10-16T01:48:45;-16272.44;;;12.56;93.82
65157;BME280;52745;49.794;18.258;2022-10-16T01:51:13;-16272.31;;;12.56;93.73
65157;BME280;52745;49.794;18.258;2022-10-16T01:53:43;-16272.16;;;12.55;93.95
65157;BME280;52745;49.794;18.258;2022-10-16T01:56:13;-16271.63;;;12.53;94.00
65157;BME280;52745;49.794;18.258;2022-10-16T01:58:49;-16273.41;;;12.60;93.28
65157;BME280;52745;49.794;18.258;2022-10-16T02:01:22;-16274.06;;;12.62;93.13
65157;BME280;52745;49.794;18.258;2022-10-16T02:03:52;-16274.88;;;12.66;92.28
65157;BME280;52745;49.794;18.258;2022-10-16T02:06:20;-16276.53;;;12.72;91.91
65157;BME280;52745;49.794;18.258;2022-10-16T02:08:46;-16277.22;;;12.74;91.61
65157;BME280;52745;49.794;18.258;2022-10-16T02:11:13;-16278.16;;;12.78;91.13
65157;BME280;52745;49.794;18.258;2022-10-16T02:13:53;-16278.16;;;12.78;91.26
65157;BME280;52745;49.794;18.258;2022-10-16T02:16:42;-16278.72;;;12.80;90.89
65157;BME280;52745;49.794;18.258;2022-10-16T02:19:15;-16278.56;;;12.79;91.14
65157;BME280;52745;49.794;18.258;2022-10-16T02:21:56;-16279.78;;;12.84;90.77
65157;BME280;52745;49.794;18.258;2022-10-16T02:24:39;-16280.34;;;12.86;90.99
65157;BME280;52745;49.794;18.258;2022-10-16T02:27:13;-16280.75;;;12.88;90.72
65157;BME280;52745;49.794;18.258;2022-10-16T02:29:50;-16279.13;;;12.81;90.72
65157;BME280;52745;49.794;18.258;2022-10-16T02:32:21;-16278.72;;;12.80;90.87
65157;BME280;52745;49.794;18.258;2022-10-16T02:34:50;-16278.84;;;12.80;90.88
65157;BME280;52745;49.794;18.258;2022-10-16T02:37:18;-16277.88;;;12.77;91.04
65157;BME280;52745;49.794;18.258;2022-10-16T02:39:44;-16277.06;;;12.74;90.90
65157;BME280;52745;49.794;18.258;2022-10-16T02:42:12;-16276.25;;;12.71;91.00
65157;BME280;52745;49.794;18.258;2022-10-16T02:44:39;-16275.56;;;12.68;91.05
65157;BME280;52745;49.794;18.258;2022-10-16T02:47:06;-16275.03;;;12.66;91.26
65157;BME280;52745;49.794;18.258;2022-10-16T02:49:32;-16274.47;;;12.64;91.36
65157;BME280;52745;49.794;18.258;2022-10-16T02:51:59;-16272.72;;;12.57;91.40
65157;BME280;52745;49.794;18.258;2022-10-16T02:54:26;-16271.09;;;12.51;91.98
65157;BME280;52745;49.794;18.258;2022-10-16T02:56:52;-16269.72;;;12.46;92.10
65157;BME280;52745;49.794;18.258;2022-10-16T02:59:19;-16268.50;;;12.41;92.48
65157;BME280;52745;49.794;18.258;2022-10-16T03:01:45;-16266.44;;;12.34;92.98
65157;BME280;52745;49.794;18.258;2022-10-16T03:04:12;-16264.81;;;12.28;93.33
65157;BME280;52745;49.794;18.258;2022-10-16T03:06:38;-16263.72;;;12.24;93.73
65157;BME280;52745;49.794;18.258;2022-10-16T03:09:05;-16261.69;;;12.16;94.12
65157;BME280;52745;49.794;18.258;2022-10-16T03:11:31;-16260.31;;;12.11;94.49
65157;BME280;52745;49.794;18.258;2022-10-16T03:13:57;-16259.63;;;12.08;94.75
65157;BME280;52745;49.794;18.258;2022-10-16T03:16:24;-16259.09;;;12.06;95.04
65157;BME280;52745;49.794;18.258;2022-10-16T03:18:50;-16257.72;;;12.01;95.29
65157;BME280;52745;49.794;18.258;2022-10-16T03:21:17;-16255.28;;;11.92;95.30
65157;BME280;52745;49.794;18.258;2022-10-16T03:23:43;-16255.16;;;11.91;95.35
65157;BME280;52745;49.794;18.258;2022-10-16T03:26:10;-16254.88;;;11.90;94.88
65157;BME280;52745;49.794;18.258;2022-10-16T03:28:36;-16255.00;;;11.91;94.53
65157;BME280;52745;49.794;18.258;2022-10-16T03:31:03;-16256.38;;;11.96;94.08
65157;BME280;52745;49.794;18.258;2022-10-16T03:33:29;-16256.91;;;11.98;94.01
65157;BME280;52745;49.794;18.258;2022-10-16T03:35:56;-16258.00;;;12.02;93.52
65157;BME280;52745;49.794;18.258;2022-10-16T03:38:22;-16258.28;;;12.03;93.37
65157;BME280;52745;49.794;18.258;2022-10-16T03:40:49;-16257.47;;;12.00;93.49
65157;BME280;52745;49.794;18.258;2022-10-16T03:43:15;-16256.38;;;11.96;93.65
65157;BME280;52745;49.794;18.258;2022-10-16T03:45:42;-16255.81;;;11.94;93.69
65157;BME280;52745;49.794;18.258;2022-10-16T03:48:10;-16256.50;;;11.96;93.39
65157;BME280;52745;49.794;18.258;2022-10-16T03:50:37;-16256.63;;;11.97;93.10
65157;BME280;52745;49.794;18.258;2022-10-16T03:53:03;-16256.91;;;11.98;nan
65157;BME280;52745;49.794;18.258;2022-10-16T03:55:30;-16256.50;;;11.96;92.96
65157;BME280;52745;49.794;18.258;2022-10-16T03:57:56;-16255.56;;;11.93;93.23
65157;BME280;52745;49.794;18.258;2022-10-16T04:00:23;-16254.31;;;11.88;93.40
65157;BME280;52745;49.794;18.258;2022-10-16T04:02:49;-16253.91;;;11.87;93.45
65157;BME280;52745;49.794;18.258;2022-10-16T04:05:16;-16252.41;;;11.81;94.28
65157;BME280;52745;49.794;18.258;2022-10-16T04:07:42;-16251.19;;;11.76;94.51
65157;BME280;52745;49.794;18.258;2022-10-16T04:10:09;-16252.00;;;11.79;93.98
65157;BME280;52745;49.794;18.258;2022-10-16T04:12:36;-16251.72;;;11.78;94.11
65157;BME280;52745;49.794;18.258;2022-10-16T04:15:02;-16251.06;;;11.76;93.72
65157;BME280;52745;49.794;18.258;2022-10-16T04:17:29;-16251.06;;;11.76;93.77
65157;BME280;52745;49.794;18.258;2022-10-16T04:19:55;-16250.22;;;11.73;94.33
65157;BME280;52745;49.794;18.258;2022-10-16T04:22:22;-16249.81;;;11.71;94.42
65157;BME280;52745;49.794;18.258;2022-10-16T04:24:48;-16250.38;;;11.73;94.51
65157;BME280;52745;49.794;18.258;2022-10-16T04:27:15;-16251.06;;;11.76;94.16
65157;BME280;52745;49.794;18.258;2022-10-16T04:29:41;-16251.31;;;11.77;94.11
65157;BME280;52745;49.794;18.258;2022-10-16T04:32:11;-16252.00;;;11.79;93.64
65157;BME280;52745;49.794;18.258;2022-10-16T04:34:39;-16252.81;;;11.83;93.87
65157;BME280;52745;49.794;18.258;2022-10-16T04:37:06;-16254.06;;;11.87;93.60
65157;BME280;52745;49.794;18.258;2022-10-16T04:39:32;-16254.47;;;11.89;93.31
65157;BME280;52745;49.794;18.258;2022-10-16T04:41:59;-16255.16;;;11.91;93.24
65157;BME280;52745;49.794;18.258;2022-10-16T04:44:25;-16254.88;;;11.90;92.92
65157;BME280;52745;49.794;18.258;2022-10-16T04:46:52;-16256.78;;;11.97;92.25
65157;BME280;52745;49.794;18.258;2022-10-16T04:49:18;-16258.28;;;12.03;92.04
65157;BME280;52745;49.794;18.258;2022-10-16T04:51:45;-16255.41;;;11.92;92.90
65157;BME280;52745;49.794;18.258;2022-10-16T04:54:11;-16253.78;;;11.86;92.92
65157;BME280;52745;49.794;18.258;2022-10-16T04:56:38;-16253.63;;;11.86;93.20
65157;BME280;52745;49.794;18.258;2022-10-16T04:59:14;-16254.19;;;11.88;92.72
65157;BME280;52745;49.794;18.258;2022-10-16T05:01:40;-16254.75;;;11.90;92.44
65157;BME280;52745;49.794;18.258;2022-10-16T05:04:07;-16255.56;;;11.93;92.31
65157;BME280;52745;49.794;18.258;2022-10-16T05:06:34;-16256.91;;;11.98;92.08
65157;BME280;52745;49.794;18.258;2022-10-16T05:09:01;-16260.19;;;12.10;91.01
65157;BME280;52745;49.794;18.258;2022-10-16T05:11:27;-16261.41;;;12.15;90.80
65157;BME280;52745;49.794;18.258;2022-10-16T05:13:54;-16262.38;;;12.18;90.33
65157;BME280;52745;49.794;18.258;2022-10-16T05:16:20;-16262.38;;;12.18;90.40
65157;BME280;52745;49.794;18.258;2022-10-16T05:18:46;-16261.00;;;12.13;90.83
65157;BME280;52745;49.794;18.258;2022-10-16T05:21:13;-16260.47;;;12.11;91.49
65157;BME280;52745;49.794;18.258;2022-10-16T05:23:40;-16260.19;;;12.10;91.10
65157;BME280;52745;49.794;18.258;2022-10-16T05:26:06;-16259.63;;;12.08;91.09
65157;BME280;52745;49.794;18.258;2022-10-16T05:28:32;-16259.78;;;12.09;91.22
65157;BME280;52745;49.794;18.258;2022-10-16T05:31:04;-16259.50;;;12.08;91.53
65157;BME280;52745;49.794;18.258;2022-10-16T05:33:30;-16257.19;;;11.99;92.35
65157;BME280;52745;49.794;18.258;2022-10-16T05:35:57;-16256.22;;;11.95;92.31
65157;BME280;52745;49.794;18.258;2022-10-16T05:38:27;-16256.09;;;11.95;92.25
65157;BME280;52745;49.794;18.258;2022-10-16T05:40:54;-16257.72;;;12.01;91.62
65157;BME280;52745;49.794;18.258;2022-10-16T05:43:20;-16258.16;;;12.03;91.88
65157;BME280;52745;49.794;18.258;2022-10-16T05:46:02;-16258.41;;;12.04;91.80
65157;BME280;52745;49.794;18.258;2022-10-16T05:48:30;-16261.13;;;12.14;91.52
65157;BME280;52745;49.794;18.258;2022-10-16T05:51:05;-16264.41;;;12.26;90.69
65157;BME280;52745;49.794;18.258;2022-10-16T05:53:35;-16268.22;;;12.40;90.10
65157;BME280;52745;49.794;18.258;2022-10-16T05:56:02;-16271.47;;;12.53;89.37
65157;BME280;52745;49.794;18.258;2022-10-16T05:58:31;-16275.97;;;12.70;88.84
65157;BME280;52745;49.794;18.258;2022-10-16T06:01:06;-16279.38;;;12.82;88.17
65157;BME280;52745;49.794;18.258;2022-10-16T06:03:34;-16282.38;;;12.94;87.55
65157;BME280;52745;49.794;18.258;2022-10-16T06:06:22;-16286.47;;;13.09;86.79
65157;BME280;52745;49.794;18.258;2022-10-16T06:08:49;-16289.31;;;13.20;86.51
65157;BME280;52745;49.794;18.258;2022-10-16T06:11:24;-16290.41;;;13.24;85.90
65157;BME280;52745;49.794;18.258;2022-10-16T06:13:53;-16291.91;;;13.30;85.86
65157;BME280;52745;49.794;18.258;2022-10-16T06:16:20;-16293.81;;;13.37;85.03
65157;BME280;52745;49.794;18.258;2022-10-16T06:18:46;-16293.56;;;13.36;85.26
65157;BME280;52745;49.794;18.258;2022-10-16T06:21:16;-16294.50;;;13.39;84.76
65157;BME280;52745;49.794;18.258;2022-10-16T06:23:43;-16296.69;;;13.48;84.62
65157;BME280;52745;49.794;18.258;2022-10-16T06:26:14;-16298.59;;;13.55;84.03
65157;BME280;52745;49.794;18.258;2022-10-16T06:28:41;-16299.94;;;13.60;84.20
65157;BME280;52745;49.794;18.258;2022-10-16T06:31:09;-16300.34;;;13.61;84.13
65157;BME280;52745;49.794;18.258;2022-10-16T06:33:37;-16302.41;;;13.69;83.93
65157;BME280;52745;49.794;18.258;2022-10-16T06:36:09;-16302.13;;;13.68;84.26
65157;BME280;52745;49.794;18.258;2022-10-16T06:38:37;-16302.81;;;13.71;83.90
65157;BME280;52745;49.794;18.258;2022-10-16T06:41:05;-16301.56;;;13.66;83.94
65157;BME280;52745;49.794;18.258;2022-10-16T06:43:32;-16299.94;;;13.60;84.40
65157;BME280;52745;49.794;18.258;2022-10-16T06:45:59;-16299.81;;;13.59;84.56
65157;BME280;52745;49.794;18.258;2022-10-16T06:48:27;-16300.75;;;13.63;84.52
65157;BME280;52745;49.794;18.258;2022-10-16T06:51:03;-16302.13;;;13.68;84.39
65157;BME280;52745;49.794;18.258;2022-10-16T06:53:32;-16302.13;;;13.68;84.04
65157;BME280;52745;49.794;18.258;2022-10-16T06:56:14;-16304.03;;;13.75;83.83
65157;BME280;52745;49.794;18.258;2022-10-16T06:58:41;-16304.56;;;13.77;83.46
65157;BME280;52745;49.794;18.258;2022-10-16T07:01:09;-16305.38;;;13.80;83.70
65157;BME280;52745;49.794;18.258;2022-10-16T07:03:37;-16310.16;;;13.98;83.07
65157;BME280;52745;49.794;18.258;2022-10-16T07:06:06;-16314.63;;;14.15;82.30
65157;BME280;52745;49.794;18.258;2022-10-16T07:08:34;-16322.66;;;14.45;81.81
65157;BME280;52745;49.794;18.258;2022-10-16T07:11:04;-16329.34;;;14.71;80.92
65157;BME280;52745;49.794;18.258;2022-10-16T07:13:35;-16331.50;;;14.79;79.81
65157;BME280;52745;49.794;18.258;2022-10-16T07:16:19;-16331.25;;;14.78;80.01
65157;BME280;52745;49.794;18.258;2022-10-16T07:18:46;-16331.50;;;14.79;79.79
65157;BME280;52745;49.794;18.258;2022-10-16T07:21:21;-16328.78;;;14.68;79.77
65157;BME280;52745;49.794;18.258;2022-10-16T07:23:52;-16329.06;;;14.69;81.15
65157;BME280;52745;49.794;18.258;2022-10-16T07:26:19;-16329.75;;;14.72;80.37
65157;BME280;52745;49.794;18.258;2022-10-16T07:28:46;-16329.75;;;14.72;80.22
65157;BME280;52745;49.794;18.258;2022-10-16T07:31:14;-16333.13;;;14.85;79.98
65157;BME280;52745;49.794;18.258;2022-10-16T07:33:42;-16334.91;;;14.92;79.76
65157;BME280;52745;49.794;18.258;2022-10-16T07:36:11;-16335.31;;;14.93;78.72
65157;BME280;52745;49.794;18.258;2022-10-16T07:38:38;-16336.00;;;14.96;78.36
65157;BME280;52745;49.794;18.258;2022-10-16T07:41:07;-16336.13;;;14.96;78.77
65157;BME280;52745;49.794;18.258;2022-10-16T07:43:35;-16334.50;;;14.90;79.02
65157;BME280;52745;49.794;18.258;2022-10-16T07:46:02;-16335.59;;;14.94;79.19
65157;BME280;52745;49.794;18.258;2022-10-16T07:48:33;-16337.91;;;15.03;79.39
65157;BME280;52745;49.794;18.258;2022-10-16T07:51:02;-16337.63;;;15.02;79.00
65157;BME280;52745;49.794;18.258;2022-10-16T07:53:29;-16338.56;;;15.05;78.95
65157;BME280;52745;49.794;18.258;2022-10-16T07:56:00;-16348.09;;;15.41;79.69
65157;BME280;52745;49.794;18.258;2022-10-16T07:58:28;-16362.91;;;15.97;75.50
65157;BME280;52745;49.794;18.258;2022-10-16T08:00:55;-16370.66;;;16.26;73.61
65157;BME280;52745;49.794;18.258;2022-10-16T08:03:23;-16372.97;;;16.35;73.15
65157;BME280;52745;49.794;18.258;2022-10-16T08:05:49;-16384.91;;;16.80;71.80
65157;BME280;52745;49.794;18.258;2022-10-16T08:08:17;-16400.53;;;17.39;68.02
65157;BME280;52745;49.794;18.258;2022-10-16T08:10:45;-16418.47;;;18.07;65.57
65157;BME280;52745;49.794;18.258;2022-10-16T08:13:12;-16444.22;;;19.04;62.17
65157;BME280;52745;49.794;18.258;2022-10-16T08:15:42;-16439.88;;;18.88;61.79
65157;BME280;52745;49.794;18.258;2022-10-16T08:18:09;-16424.69;;;18.30;64.33
65157;BME280;52745;49.794;18.258;2022-10-16T08:20:36;-16411.41;;;17.80;65.60
65157;BME280;52745;49.794;18.258;2022-10-16T08:23:03;-16421.56;;;18.18;64.68
65157;BME280;52745;49.794;18.258;2022-10-16T08:25:30;-16427.00;;;18.39;64.16
65157;BME280;52745;49.794;18.258;2022-10-16T08:27:56;-16423.88;;;18.27;64.54
65157;BME280;52745;49.794;18.258;2022-10-16T08:30:24;-16429.44;;;18.48;64.45
65157;BME280;52745;49.794;18.258;2022-10-16T08:32:50;-16433.09;;;18.62;63.98
65157;BME280;52745;49.794;18.258;2022-10-16T08:35:17;-16433.25;;;18.63;63.78
65157;BME280;52745;49.794;18.258;2022-10-16T08:37:43;-16439.88;;;18.88;63.55
65157;BME280;52745;49.794;18.258;2022-10-16T08:40:18;-16440.03;;;18.88;62.43
65157;BME280;52745;49.794;18.258;2022-10-16T08:48:30;-16478.53;;;20.34;59.79
65157;BME280;52745;49.794;18.258;2022-10-16T08:51:02;-16479.75;;;20.38;58.03
65157;BME280;52745;49.794;18.258;2022-10-16T08:56:19;-16513.59;;;21.66;54.11
65157;BME280;52745;49.794;18.258;2022-10-16T08:58:47;-16549.19;;;23.01;51.47
65157;BME280;52745;49.794;18.258;2022-10-16T09:01:16;-16556.47;;;23.29;49.36
65157;BME280;52745;49.794;18.258;2022-10-16T09:06:29;-16524.56;;;22.08;52.60
65157;BME280;52745;49.794;18.258;2022-10-16T09:11:57;-16492.88;;;20.88;55.75
65157;BME280;52745;49.794;18.258;2022-10-16T09:16:57;-16495.03;;;20.96;55.74
65157;BME280;52745;49.794;18.258;2022-10-16T09:19:38;-16483.94;;;20.54;58.15
65157;BME280;52745;49.794;18.258;2022-10-16T09:22:13;-16481.38;;;20.44;57.59
65157;BME280;52745;49.794;18.258;2022-10-16T09:24:41;-16471.59;;;20.08;58.77
65157;BME280;52745;49.794;18.258;2022-10-16T09:27:12;-16469.16;;;19.98;60.04
65157;BME280;52745;49.794;18.258;2022-10-16T09:29:40;-16461.03;;;19.68;60.97
65157;BME280;52745;49.794;18.258;2022-10-16T09:32:12;-16458.88;;;19.59;60.83
65157;BME280;52745;49.794;18.258;2022-10-16T09:34:58;-16457.78;;;19.55;61.58
65157;BME280;52745;49.794;18.258;2022-10-16T09:37:25;-16462.41;;;19.73;60.92
65157;BME280;52745;49.794;18.258;2022-10-16T09:39:53;-16468.22;;;19.95;60.29
65157;BME280;52745;49.794;18.258;2022-10-16T09:42:24;-16466.47;;;19.88;60.49
65157;BME280;52745;49.794;18.258;2022-10-16T09:44:53;-16461.84;;;19.71;60.55
65157;BME280;52745;49.794;18.258;2022-10-16T09:47:25;-16463.88;;;19.78;60.06
65157;BME280;52745;49.794;18.258;2022-10-16T09:50:00;-16468.63;;;19.96;59.66
65157;BME280;52745;49.794;18.258;2022-10-16T09:52:32;-16467.00;;;19.90;58.97
65157;BME280;52745;49.794;18.258;2022-10-16T09:55:12;-16464.44;;;19.80;60.08
65157;BME280;52745;49.794;18.258;2022-10-16T09:57:52;-16458.47;;;19.58;60.39
65157;BME280;52745;49.794;18.258;2022-10-16T10:00:21;-16454.25;;;19.42;63.91
65157;BME280;52745;49.794;18.258;2022-10-16T10:02:48;-16447.22;;;19.15;62.30
65157;BME280;52745;49.794;18.258;2022-10-16T10:05:27;-16440.72;;;18.91;63.50
65157;BME280;52745;49.794;18.258;2022-10-16T10:07:59;-16435.53;;;18.71;63.96
65157;BME280;52745;49.794;18.258;2022-10-16T10:10:28;-16436.91;;;18.76;64.05
65157;BME280;52745;49.794;18.258;2022-10-16T10:12:56;-16436.09;;;18.73;63.93
65157;BME280;52745;49.794;18.258;2022-10-16T10:15:23;-16435.81;;;18.72;64.46
65157;BME280;52745;49.794;18.258;2022-10-16T10:17:56;-16440.97;;;18.92;63.99
65157;BME280;52745;49.794;18.258;2022-10-16T10:20:28;-16448.84;;;19.21;63.52
65157;BME280;52745;49.794;18.258;2022-10-16T10:22:55;-16453.19;;;19.38;62.87
65157;BME280;52745;49.794;18.258;2022-10-16T10:25:34;-16455.63;;;19.47;62.05
65157;BME280;52745;49.794;18.258;2022-10-16T10:28:33;-16460.91;;;19.67;61.71
65157;BME280;52745;49.794;18.258;2022-10-16T10:34:00;-16471.75;;;20.08;59.25
65157;BME280;52745;49.794;18.258;2022-10-16T10:36:35;-16480.56;;;20.41;56.44
65157;BME280;52745;49.794;18.258;2022-10-16T10:39:27;-16478.13;;;20.32;55.87
65157;BME280;52745;49.794;18.258;2022-10-16T10:53:41;-16503.84;;;21.29;52.56
65157;BME280;52745;49.794;18.258;2022-10-16T10:56:39;-16511.97;;;21.60;51.54
65157;BME280;52745;49.794;18.258;2022-10-16T11:01:47;-16508.84;;;21.48;52.04
65157;BME280;52745;49.794;18.258;2022-10-16T11:04:33;-16517.13;;;21.80;51.30
65157;BME280;52745;49.794;18.258;2022-10-16T11:07:05;-16524.28;;;22.07;50.02
65157;BME280;52745;49.794;18.258;2022-10-16T11:09:47;-16518.19;;;21.84;50.35
65157;BME280;52745;49.794;18.258;2022-10-16T11:12:20;-16511.44;;;21.58;51.63
65157;BME280;52745;49.794;18.258;2022-10-16T11:15:00;-16512.25;;;21.61;52.05
65157;BME280;52745;49.794;18.258;2022-10-16T11:17:59;-16503.16;;;21.27;52.22
65157;BME280;52745;49.794;18.258;2022-10-16T11:20:31;-16498.69;;;21.10;53.38
65157;BME280;52745;49.794;18.258;2022-10-16T11:25:48;-16502.75;;;21.25;53.70
65157;BME280;52745;49.794;18.258;2022-10-16T11:28:27;-16503.72;;;21.29;52.61
65157;BME280;52745;49.794;18.258;2022-10-16T11:31:05;-16497.88;;;21.07;53.45
65157;BME280;52745;49.794;18.258;2022-10-16T11:33:41;-16489.22;;;20.74;53.46
65157;BME280;52745;49.794;18.258;2022-10-16T11:39:22;-16478.13;;;20.32;56.13
65157;BME280;52745;49.794;18.258;2022-10-16T11:42:02;-16475.00;;;20.20;55.19
65157;BME280;52745;49.794;18.258;2022-10-16T11:52:55;-16468.38;;;19.95;56.34
65157;BME280;52745;49.794;18.258;2022-10-16T11:55:28;-16471.59;;;20.08;55.61
65157;BME280;52745;49.794;18.258;2022-10-16T11:57:59;-16469.72;;;20.00;56.22
65157;BME280;52745;49.794;18.258;2022-10-16T12:00:40;-16472.69;;;20.12;55.91
65157;BME280;52745;49.794;18.258;2022-10-16T12:06:14;-16467.41;;;19.92;57.01
65157;BME280;52745;49.794;18.258;2022-10-16T12:08:47;-16467.16;;;19.91;56.41
65157;BME280;52745;49.794;18.258;2022-10-16T12:11:33;-16462.81;;;19.74;56.99
65157;BME280;52745;49.794;18.258;2022-10-16T12:16:57;-16461.44;;;19.69;56.67
65157;BME280;52745;49.794;18.258;2022-10-16T12:19:27;-16460.50;;;19.65;57.16
65157;BME280;52745;49.794;18.258;2022-10-16T12:22:00;-16453.59;;;19.39;56.78
65157;BME280;52745;49.794;18.258;2022-10-16T12:24:31;-16450.06;;;19.26;57.59
65157;BME280;52745;49.794;18.258;2022-10-16T12:26:59;-16449.53;;;19.24;58.34
65157;BME280;52745;49.794;18.258;2022-10-16T12:29:38;-16445.03;;;19.07;58.30
65157;BME280;52745;49.794;18.258;2022-10-16T12:32:22;-16443.16;;;19.00;58.60
65157;BME280;52745;49.794;18.258;2022-10-16T12:34:51;-16442.31;;;18.97;59.09
65157;BME280;52745;49.794;18.258;2022-10-16T12:37:37;-16441.66;;;18.94;59.01
65157;BME280;52745;49.794;18.258;2022-10-16T12:40:32;-16440.97;;;18.92;59.40
65157;BME280;52745;49.794;18.258;2022-10-16T12:43:10;-16441.78;;;18.95;58.92
65157;BME280;52745;49.794;18.258;2022-10-16T12:45:37;-16441.25;;;18.93;59.04
65157;BME280;52745;49.794;18.258;2022-10-16T12:48:18;-16441.78;;;18.95;59.50
65157;BME280;52745;49.794;18.258;2022-10-16T12:50:46;-16441.94;;;18.95;59.42
65157;BME280;52745;49.794;18.258;2022-10-16T12:53:26;-16440.56;;;18.90;59.49
65157;BME280;52745;49.794;18.258;2022-10-16T12:56:09;-16437.84;;;18.80;59.95
65157;BME280;52745;49.794;18.258;2022-10-16T13:07:42;-16438.81;;;18.84;60.97
65157;BME280;52745;49.794;18.258;2022-10-16T13:10:28;-16444.22;;;19.04;60.11
65157;BME280;52745;49.794;18.258;2022-10-16T13:24:23;-16491.13;;;20.81;53.79
65157;BME280;52745;49.794;18.258;2022-10-16T13:26:59;-16485.44;;;20.60;54.01
65157;BME280;52745;49.794;18.258;2022-10-16T13:29:30;-16481.78;;;20.46;54.37
65157;BME280;52745;49.794;18.258;2022-10-16T13:31:59;-16481.38;;;20.44;54.38
65157;BME280;52745;49.794;18.258;2022-10-16T13:34:26;-16482.72;;;20.50;54.70
65157;BME280;52745;49.794;18.258;2022-10-16T13:36:53;-16483.81;;;20.54;55.06
65157;BME280;52745;49.794;18.258;2022-10-16T13:39:21;-16482.03;;;20.47;55.17
65157;BME280;52745;49.794;18.258;2022-10-16T13:42:10;-16478.78;;;20.35;55.17
65157;BME280;52745;49.794;18.258;2022-10-16T13:44:47;-16475.13;;;20.21;55.74
65157;BME280;52745;49.794;18.258;2022-10-16T13:47:23;-16472.44;;;20.11;55.86
65157;BME280;52745;49.794;18.258;2022-10-16T13:52:27;-16473.09;;;20.13;56.21
65157;BME280;52745;49.794;18.258;2022-10-16T13:54:54;-16471.88;;;20.09;56.05
65157;BME280;52745;49.794;18.258;2022-10-16T13:57:23;-16470.81;;;20.04;55.37
65157;BME280;52745;49.794;18.258;2022-10-16T13:59:50;-16468.91;;;19.97;56.75
65157;BME280;52745;49.794;18.258;2022-10-16T14:02:27;-16463.75;;;19.78;57.18
65157;BME280;52745;49.794;18.258;2022-10-16T14:04:56;-16458.59;;;19.58;57.48
65157;BME280;52745;49.794;18.258;2022-10-16T14:07:26;-16453.72;;;19.40;57.71
65157;BME280;52745;49.794;18.258;2022-10-16T14:09:55;-16449.38;;;19.23;58.68
65157;BME280;52745;49.794;18.258;2022-10-16T14:12:23;-16447.75;;;19.17;59.12
65157;BME280;52745;49.794;18.258;2022-10-16T14:14:51;-16445.44;;;19.09;59.35
65157;BME280;52745;49.794;18.258;2022-10-16T14:17:23;-16443.00;;;18.99;60.22
65157;BME280;52745;49.794;18.258;2022-10-16T14:19:53;-16443.81;;;19.02;60.66
65157;BME280;52745;49.794;18.258;2022-10-16T14:24:57;-16441.78;;;18.95;60.21
65157;BME280;52745;49.794;18.258;2022-10-16T14:27:34;-16441.78;;;18.95;60.14
65157;BME280;52745;49.794;18.258;2022-10-16T14:30:10;-16442.88;;;18.99;60.05
65157;BME280;52745;49.794;18.258;2022-10-16T14:32:40;-16443.81;;;19.02;60.02